| time (UTC) | temp F | wind direction | speed knots | gust knots | rain 1hr in | rain 24hr in | rain mn in | humidity % | barometer mb |
| 20260505201302 | 81 | 265 | 3.5 | 11.3 | 0.00 | 0.00 | 0.00 | 47 | 1017.4 |
| 20260505200801 | 81 | 191 | 3.5 | 11.3 | 0.00 | 0.00 | 0.00 | 48 | 1017.4 |
| 20260505200302 | 81 | 169 | 2.6 | 8.7 | 0.00 | 0.00 | 0.00 | 47 | 1017.4 |
| 20260505195759 | 81 | 128 | 2.6 | 7.8 | 0.00 | 0.00 | 0.00 | 46 | 1017.5 |
| 20260505195253 | 81 | 192 | 3.5 | 9.6 | 0.00 | 0.00 | 0.00 | 48 | 1017.6 |
| 20260505194748 | 81 | 186 | 2.6 | 9.6 | 0.00 | 0.00 | 0.00 | 47 | 1017.7 |
| 20260505194506 | 81 | 177 | 3.5 | 10.4 | 0.00 | 0.00 | 0.00 | 48 | 1017.6 |
| 20260505193735 | 81 | 207 | 3.5 | 10.4 | 0.00 | 0.00 | 0.00 | 47 | 1017.8 |
| 20260505193229 | 82 | 193 | 3.5 | 7.8 | 0.00 | 0.00 | 0.00 | 47 | 1017.9 |
| 20260505192723 | 81 | 217 | 2.6 | 7.8 | 0.00 | 0.00 | 0.00 | 49 | 1018.0 |
| 20260505192446 | 81 | 207 | 2.6 | 9.6 | 0.00 | 0.00 | 0.00 | 48 | 1018.1 |
| 20260505191711 | 81 | 151 | 2.6 | 9.6 | 0.00 | 0.00 | 0.00 | 49 | 1018.2 |
| 20260505191206 | 81 | 157 | 2.6 | 7.0 | 0.00 | 0.00 | 0.00 | 50 | 1018.1 |
| 20260505190659 | 81 | 161 | 2.6 | 7.0 | 0.00 | 0.00 | 0.00 | 50 | 1018.2 |
| 20260505190153 | 81 | 40 | 1.7 | 7.8 | 0.00 | 0.00 | 0.00 | 50 | 1018.2 |
| 20260505185647 | 81 | 207 | 1.7 | 7.8 | 0.00 | 0.00 | 0.00 | 49 | 1018.2 |
| 20260505185140 | 81 | 183 | 1.7 | 7.0 | 0.00 | 0.00 | 0.00 | 48 | 1018.3 |
| 20260505184636 | 82 | 182 | 1.7 | 7.0 | 0.00 | 0.00 | 0.00 | 47 | 1018.3 |
| 20260505184351 | 82 | 141 | 2.6 | 7.0 | 0.00 | 0.00 | 0.00 | 50 | 1018.5 |
| 20260505183623 | 82 | 235 | 2.6 | 8.7 | 0.00 | 0.00 | 0.00 | 48 | 1018.5 |
| 20260505183117 | 82 | 182 | 1.7 | 8.7 | 0.00 | 0.00 | 0.00 | 48 | 1018.5 |
| 20260505182611 | 81 | 163 | 1.7 | 7.0 | 0.00 | 0.00 | 0.00 | 50 | 1018.6 |
| 20260505182105 | 81 | 184 | 2.6 | 6.1 | 0.00 | 0.00 | 0.00 | 48 | 1018.7 |
| 20260505181600 | 81 | 163 | 1.7 | 6.1 | 0.00 | 0.00 | 0.00 | 48 | 1018.7 |
| 20260505181053 | 82 | 234 | 1.7 | 6.1 | 0.00 | 0.00 | 0.00 | 48 | 1018.7 |
| 20260505180547 | 81 | 171 | 2.6 | 5.2 | 0.00 | 0.00 | 0.00 | 50 | 1018.7 |
| 20260505180042 | 81 | 165 | 1.7 | 6.1 | 0.00 | 0.00 | 0.00 | 49 | 1018.6 |
| 20260505175535 | 81 | 194 | 1.7 | 6.1 | 0.00 | 0.00 | 0.00 | 52 | 1018.8 |
| 20260505175029 | 80 | 201 | 2.6 | 6.1 | 0.00 | 0.00 | 0.00 | 52 | 1018.7 |
| 20260505174523 | 80 | 207 | 1.7 | 5.2 | 0.00 | 0.00 | 0.00 | 52 | 1018.8 |
| 20260505174017 | 80 | 208 | 1.7 | 6.1 | 0.00 | 0.00 | 0.00 | 51 | 1018.8 |
| 20260505173511 | 80 | 198 | 1.7 | 5.2 | 0.00 | 0.00 | 0.00 | 52 | 1018.8 |
| 20260505173005 | 80 | 207 | 1.7 | 6.1 | 0.00 | 0.00 | 0.00 | 51 | 1018.8 |
| 20260505172459 | 79 | 217 | 1.7 | 6.1 | 0.00 | 0.00 | 0.00 | 52 | 1019.0 |
| 20260505171953 | 79 | 207 | 1.7 | 5.2 | 0.00 | 0.00 | 0.00 | 53 | 1019.0 |
| 20260505171447 | 79 | 207 | 2.6 | 6.1 | 0.00 | 0.00 | 0.00 | 52 | 1019.2 |
| 20260505171425 | 80 | 191 | 1.7 | 9.6 | 0.00 | 0.00 | 0.00 | 52 | 1019.4 |
| 20260505170438 | 80 | 96 | 1.7 | 9.6 | 0.00 | 0.00 | 0.00 | 52 | 1019.4 |
| 20260505165937 | 79 | 157 | 2.6 | 9.6 | 0.00 | 0.00 | 0.00 | 53 | 1019.5 |
| 20260505165438 | 79 | 136 | 1.7 | 7.0 | 0.00 | 0.00 | 0.00 | 53 | 1019.4 |
| 20260505164938 | 79 | 188 | 1.7 | 7.0 | 0.00 | 0.00 | 0.00 | 53 | 1019.6 |
| 20260505164438 | 78 | 220 | 1.7 | 7.8 | 0.00 | 0.00 | 0.00 | 53 | 1019.7 |
| 20260505164202 | 79 | 176 | 2.6 | 7.8 | 0.00 | 0.00 | 0.00 | 54 | 1019.7 |
| 20260505163437 | 79 | 229 | 1.7 | 5.2 | 0.00 | 0.00 | 0.00 | 53 | 1019.8 |
| 20260505163158 | 79 | 162 | 1.7 | 7.8 | 0.00 | 0.00 | 0.00 | 54 | 1019.7 |
| 20260505162439 | 78 | 175 | 1.7 | 7.8 | 0.00 | 0.00 | 0.00 | 56 | 1019.8 |
| 20260505161939 | 78 | 215 | 2.6 | 7.8 | 0.00 | 0.00 | 0.00 | 55 | 1019.7 |
| 20260505161438 | 78 | 223 | 2.6 | 6.1 | 0.00 | 0.00 | 0.00 | 54 | 1019.8 |
| 20260505161159 | 78 | 153 | 1.7 | 5.2 | 0.00 | 0.00 | 0.00 | 55 | 1019.9 |
| 20260505160438 | 78 | 213 | 0.9 | 4.3 | 0.00 | 0.00 | 0.00 | 56 | 1019.8 |
| 20260505152939 | 75 | 200 | 3.5 | 8.7 | 0.00 | 0.00 | 0.00 | 60 | 1020.2 |
| 20260505152438 | 75 | 218 | 1.7 | 8.7 | 0.00 | 0.00 | 0.00 | 61 | 1020.3 |
| 20260505152203 | 75 | 205 | 1.7 | 5.2 | 0.00 | 0.00 | 0.00 | 62 | 1020.3 |
| 20260505151439 | 74 | 320 | 2.6 | 10.4 | 0.00 | 0.00 | 0.00 | 66 | 1020.2 |
| 20260505150938 | 74 | 229 | 2.6 | 10.4 | 0.00 | 0.00 | 0.00 | 62 | 1020.3 |
| 20260505150438 | 73 | 315 | 3.5 | 8.7 | 0.00 | 0.00 | 0.00 | 63 | 1020.2 |
| 20260505140413 | 68 | 90 | 1.7 | 6.1 | 0.00 | 0.00 | 0.00 | 76 | 1020.1 |
| 20260505140136 | 68 | 200 | 0.9 | 6.1 | 0.00 | 0.00 | 0.00 | 76 | 1020.1 |
| 20260505124402 | 58 | 194 | 0.9 | 4.3 | 0.00 | 0.00 | 0.00 | 92 | 1019.9 |
| 20260505124119 | 58 | 228 | 0.9 | 3.5 | 0.00 | 0.00 | 0.00 | 93 | 1019.9 |
| 20260505123356 | 57 | 219 | 0.9 | 3.5 | 0.00 | 0.00 | 0.00 | 94 | 1019.8 |
| 20260505122853 | 56 | 207 | 0.9 | 2.6 | 0.00 | 0.00 | 0.00 | 95 | 1019.8 |
| 20260505122352 | 56 | 250 | 0.9 | 2.6 | 0.00 | 0.00 | 0.00 | 96 | 1019.8 |
| 20260505121851 | 55 | 199 | 0.9 | 2.6 | 0.00 | 0.00 | 0.00 | 97 | 1019.8 |
| 20260505121614 | 54 | 199 | 0.0 | 1.7 | 0.00 | 0.00 | 0.00 | 97 | 1019.8 |
| 20260505120852 | 53 | 199 | 0.0 | 1.7 | 0.00 | 0.00 | 0.00 | 97 | 1019.8 |
| 20260505120353 | 53 | 199 | 0.0 | 1.7 | 0.00 | 0.00 | 0.00 | 97 | 1019.8 |
| 20260505115851 | 52 | 199 | 0.0 | 1.7 | 0.00 | 0.00 | 0.00 | 97 | 1019.7 |
| 20260505115344 | 51 | 199 | 0.0 | 0.0 | 0.00 | 0.00 | 0.00 | 96 | 1019.8 |
| 20260505115100 | 51 | 199 | 0.0 | 0.0 | 0.00 | 0.00 | 0.00 | 96 | 1019.8 |
| 20260505114332 | 50 | 199 | 0.0 | 0.0 | 0.00 | 0.00 | 0.00 | 96 | 1019.8 |
| 20260505113826 | 50 | 199 | 0.0 | 0.0 | 0.00 | 0.00 | 0.00 | 95 | 1019.7 |
| 20260505113536 | 50 | 199 | 0.0 | 0.0 | 0.00 | 0.00 | 0.00 | 96 | 1019.7 |
| 20260505112814 | 50 | 199 | 0.0 | 0.0 | 0.00 | 0.00 | 0.00 | 95 | 1019.6 |
| 20260505112533 | 49 | 199 | 0.0 | 0.0 | 0.00 | 0.00 | 0.00 | 95 | 1019.6 |
| 20260505111802 | 49 | 199 | 0.0 | 0.0 | 0.00 | 0.00 | 0.00 | 94 | 1019.6 |
| 20260505111256 | 49 | 199 | 0.0 | 0.0 | 0.00 | 0.00 | 0.00 | 94 | 1019.6 |
| 20260505110750 | 49 | 199 | 0.0 | 0.0 | 0.00 | 0.00 | 0.00 | 93 | 1019.4 |
| 20260505110244 | 49 | 199 | 0.0 | 0.0 | 0.00 | 0.00 | 0.00 | 93 | 1019.5 |
| 20260505102156 | 49 | 199 | 0.0 | 0.0 | 0.00 | 0.00 | 0.00 | 92 | 1019.0 |
| 20260505101650 | 49 | 199 | 0.0 | 0.0 | 0.00 | 0.00 | 0.00 | 93 | 1018.9 |
| 20260505101145 | 49 | 199 | 0.0 | 0.0 | 0.00 | 0.00 | 0.00 | 93 | 1018.8 |
| 20260505100645 | 49 | 199 | 0.0 | 0.0 | 0.00 | 0.00 | 0.00 | 93 | 1018.8 |
| 20260505100147 | 49 | 199 | 0.0 | 0.0 | 0.00 | 0.00 | 0.00 | 92 | 1018.8 |
| 20260505095911 | 49 | 199 | 0.0 | 0.0 | 0.00 | 0.00 | 0.00 | 92 | 1018.8 |
| 20260505095144 | 49 | 199 | 0.0 | 0.0 | 0.00 | 0.00 | 0.00 | 92 | 1018.8 |
| 20260505095136 | 49 | 199 | 0.0 | 0.0 | 0.00 | 0.00 | 0.00 | 92 | 1018.8 |
| 20260505094141 | 49 | 199 | 0.0 | 0.0 | 0.00 | 0.00 | 0.00 | 92 | 1018.8 |
| 20260505093641 | 49 | 199 | 0.0 | 0.0 | 0.00 | 0.00 | 0.00 | 91 | 1018.9 |
| 20260505093142 | 49 | 199 | 0.0 | 0.0 | 0.00 | 0.00 | 0.00 | 91 | 1018.8 |
| 20260505092641 | 49 | 199 | 0.0 | 0.0 | 0.00 | 0.00 | 0.00 | 92 | 1018.7 |
| 20260505092138 | 50 | 199 | 0.0 | 0.0 | 0.00 | 0.00 | 0.00 | 92 | 1018.7 |
| 20260505091638 | 50 | 199 | 0.0 | 0.0 | 0.00 | 0.00 | 0.00 | 91 | 1018.6 |
| 20260505091136 | 50 | 199 | 0.0 | 0.0 | 0.00 | 0.00 | 0.00 | 91 | 1018.5 |
| 20260505090634 | 50 | 199 | 0.0 | 0.0 | 0.00 | 0.00 | 0.00 | 91 | 1018.5 |
| 20260505090359 | 50 | 199 | 0.0 | 0.0 | 0.00 | 0.00 | 0.00 | 92 | 1018.5 |
| 20260505085633 | 50 | 199 | 0.0 | 0.0 | 0.00 | 0.00 | 0.00 | 91 | 1018.5 |
| 20260505085132 | 50 | 199 | 0.0 | 0.0 | 0.00 | 0.00 | 0.00 | 91 | 1018.5 |
| 20260505084634 | 50 | 199 | 0.0 | 0.0 | 0.00 | 0.00 | 0.00 | 91 | 1018.4 |
| 20260505084133 | 50 | 199 | 0.0 | 0.0 | 0.00 | 0.00 | 0.00 | 91 | 1018.4 |
| 20260505083635 | 50 | 199 | 0.0 | 0.0 | 0.00 | 0.00 | 0.00 | 91 | 1018.3 |
| 20260505083402 | 50 | 199 | 0.0 | 0.0 | 0.00 | 0.00 | 0.00 | 91 | 1018.2 |
| 20260505082633 | 50 | 199 | 0.0 | 0.0 | 0.00 | 0.00 | 0.00 | 91 | 1018.2 |
| 20260505082133 | 50 | 199 | 0.0 | 0.0 | 0.00 | 0.00 | 0.00 | 91 | 1018.1 |
| 20260505081839 | 50 | 199 | 0.0 | 0.0 | 0.00 | 0.00 | 0.00 | 91 | 1018.1 |
| 20260505081724 | 50 | 199 | 0.0 | 0.0 | 0.00 | 0.00 | 0.00 | 91 | 1018.2 |
| 20260505080634 | 51 | 199 | 0.0 | 0.0 | 0.00 | 0.00 | 0.00 | 91 | 1018.1 |
| 20260505080131 | 51 | 199 | 0.0 | 0.0 | 0.00 | 0.00 | 0.00 | 91 | 1018.1 |
| 20260505075526 | 51 | 199 | 0.0 | 0.0 | 0.00 | 0.00 | 0.00 | 90 | 1018.0 |
| 20260505075028 | 51 | 199 | 0.0 | 0.0 | 0.00 | 0.00 | 0.00 | 90 | 1018.0 |
| 20260505074527 | 51 | 199 | 0.0 | 0.0 | 0.00 | 0.00 | 0.00 | 90 | 1018.1 |
| 20260505074028 | 51 | 199 | 0.0 | 0.0 | 0.00 | 0.00 | 0.00 | 89 | 1018.1 |
| 20260505073527 | 51 | 199 | 0.0 | 0.0 | 0.00 | 0.00 | 0.00 | 89 | 1018.1 |
| 20260505073028 | 51 | 199 | 0.0 | 0.0 | 0.00 | 0.00 | 0.00 | 89 | 1018.1 |
| 20260505072752 | 51 | 199 | 0.0 | 0.0 | 0.00 | 0.00 | 0.00 | 89 | 1018.1 |
| 20260505072027 | 51 | 199 | 0.0 | 0.0 | 0.00 | 0.00 | 0.00 | 89 | 1018.1 |
| 20260505071528 | 51 | 199 | 0.0 | 0.0 | 0.00 | 0.00 | 0.00 | 89 | 1018.0 |
| 20260505071027 | 52 | 199 | 0.0 | 0.0 | 0.00 | 0.00 | 0.00 | 88 | 1018.2 |
| 20260505070521 | 52 | 199 | 0.0 | 0.0 | 0.00 | 0.00 | 0.00 | 88 | 1018.1 |
| 20260505070015 | 52 | 199 | 0.0 | 0.0 | 0.00 | 0.00 | 0.00 | 88 | 1018.3 |
| 20260505065509 | 52 | 199 | 0.0 | 0.0 | 0.00 | 0.00 | 0.00 | 88 | 1018.1 |
| 20260505065003 | 52 | 199 | 0.0 | 0.0 | 0.00 | 0.00 | 0.00 | 88 | 1018.2 |
| 20260505064457 | 52 | 199 | 0.0 | 0.0 | 0.00 | 0.00 | 0.00 | 88 | 1018.1 |
| 20260505063951 | 53 | 199 | 0.0 | 0.0 | 0.00 | 0.00 | 0.00 | 88 | 1018.2 |
| 20260505063445 | 53 | 199 | 0.0 | 0.0 | 0.00 | 0.00 | 0.00 | 87 | 1018.3 |
| 20260505063159 | 53 | 199 | 0.0 | 0.0 | 0.00 | 0.00 | 0.00 | 86 | 1018.4 |
| 20260505062433 | 53 | 199 | 0.0 | 0.0 | 0.00 | 0.00 | 0.00 | 86 | 1018.5 |
| 20260505061927 | 53 | 199 | 0.0 | 0.0 | 0.00 | 0.00 | 0.00 | 86 | 1018.5 |
| 20260505061421 | 53 | 199 | 0.0 | 0.0 | 0.00 | 0.00 | 0.00 | 86 | 1018.5 |
| 20260505060916 | 53 | 199 | 0.0 | 0.0 | 0.00 | 0.00 | 0.00 | 85 | 1018.5 |
| 20260505060409 | 54 | 199 | 0.0 | 0.0 | 0.00 | 0.00 | 0.00 | 85 | 1018.6 |
| 20260505060121 | 54 | 199 | 0.0 | 0.0 | 0.00 | 0.00 | 0.00 | 85 | 1018.6 |
| 20260505055357 | 54 | 199 | 0.0 | 0.0 | 0.00 | 0.00 | 0.00 | 83 | 1018.6 |
| 20260505055114 | 55 | 199 | 0.0 | 0.0 | 0.00 | 0.00 | 0.00 | 83 | 1018.6 |
| 20260505054345 | 55 | 199 | 0.0 | 0.0 | 0.00 | 0.00 | 0.00 | 83 | 1018.7 |
| 20260505053840 | 55 | 199 | 0.0 | 0.0 | 0.00 | 0.00 | 0.00 | 83 | 1018.8 |
| 20260505053333 | 55 | 199 | 0.0 | 0.0 | 0.00 | 0.00 | 0.00 | 83 | 1018.8 |
| 20260505053053 | 55 | 199 | 0.0 | 0.0 | 0.00 | 0.00 | 0.00 | 82 | 1018.8 |
| 20260505052321 | 56 | 199 | 0.0 | 0.0 | 0.00 | 0.00 | 0.00 | 82 | 1018.8 |
| 20260505051815 | 56 | 199 | 0.0 | 0.0 | 0.00 | 0.00 | 0.00 | 82 | 1018.8 |
| 20260505051309 | 56 | 199 | 0.0 | 0.0 | 0.00 | 0.00 | 0.00 | 81 | 1018.8 |
| 20260505050809 | 56 | 199 | 0.0 | 0.0 | 0.00 | 0.00 | 0.00 | 80 | 1018.8 |
| 20260505050307 | 57 | 199 | 0.0 | 0.0 | 0.00 | 0.00 | 0.00 | 81 | 1018.9 |
| 20260505041754 | 60 | 199 | 0.0 | 0.0 | 0.00 | 0.00 | 0.00 | 75 | 1018.9 |
| 20260505041252 | 60 | 199 | 0.0 | 0.0 | 0.00 | 0.00 | 0.00 | 75 | 1019.0 |
| 20260505040749 | 60 | 199 | 0.0 | 0.0 | 0.00 | 0.00 | 0.00 | 74 | 1018.9 |
| 20260505040509 | 61 | 199 | 0.0 | 0.0 | 0.00 | 0.00 | 0.00 | 73 | 1018.9 |
| 20260505035745 | 61 | 196 | 0.0 | 0.0 | 0.00 | 0.00 | 0.00 | 72 | 1019.0 |
| 20260505035244 | 61 | 196 | 0.0 | 0.0 | 0.00 | 0.00 | 0.00 | 72 | 1018.9 |
| 20260505034745 | 62 | 196 | 0.0 | 0.0 | 0.00 | 0.00 | 0.00 | 71 | 1019.0 |
| 20260505034459 | 62 | 196 | 0.0 | 0.0 | 0.00 | 0.00 | 0.00 | 70 | 1019.0 |
| 20260505033741 | 62 | 196 | 0.0 | 0.0 | 0.00 | 0.00 | 0.00 | 69 | 1019.0 |
| 20260505033505 | 63 | 196 | 0.0 | 2.6 | 0.00 | 0.00 | 0.00 | 69 | 1019.0 |
| 20260505032743 | 63 | 196 | 0.0 | 2.6 | 0.00 | 0.00 | 0.00 | 69 | 1019.1 |
| 20260505032507 | 63 | 196 | 0.0 | 2.6 | 0.00 | 0.00 | 0.00 | 68 | 1019.2 |
| 20260505031742 | 63 | 198 | 0.9 | 3.5 | 0.00 | 0.00 | 0.00 | 67 | 1019.0 |
| 20260505031240 | 64 | 198 | 0.9 | 3.5 | 0.00 | 0.00 | 0.00 | 67 | 1019.1 |
| 20260505030742 | 64 | 207 | 1.7 | 4.3 | 0.00 | 0.00 | 0.00 | 67 | 1019.0 |
| 20260505030241 | 64 | 198 | 0.9 | 4.3 | 0.00 | 0.00 | 0.00 | 67 | 1019.0 |
| 20260505025742 | 64 | 204 | 0.9 | 3.5 | 0.00 | 0.00 | 0.00 | 66 | 1019.0 |
| 20260505025236 | 64 | 192 | 1.7 | 3.5 | 0.00 | 0.00 | 0.00 | 66 | 1019.0 |
| 20260505024730 | 65 | 212 | 1.7 | 5.2 | 0.00 | 0.00 | 0.00 | 66 | 1018.9 |
| 20260505024224 | 65 | 205 | 0.9 | 5.2 | 0.00 | 0.00 | 0.00 | 66 | 1018.8 |
| 20260505023718 | 65 | 175 | 0.9 | 5.2 | 0.00 | 0.00 | 0.00 | 65 | 1018.9 |
| 20260505023212 | 65 | 213 | 0.9 | 5.2 | 0.00 | 0.00 | 0.00 | 65 | 1018.8 |
| 20260505022706 | 65 | 158 | 0.9 | 4.3 | 0.00 | 0.00 | 0.00 | 65 | 1018.8 |
| 20260505022200 | 66 | 228 | 0.9 | 4.3 | 0.00 | 0.00 | 0.00 | 64 | 1018.9 |
| 20260505021655 | 66 | 188 | 0.9 | 3.5 | 0.00 | 0.00 | 0.00 | 64 | 1018.9 |
| 20260505021148 | 66 | 184 | 0.9 | 4.3 | 0.00 | 0.00 | 0.00 | 63 | 1018.9 |
| 20260505020642 | 67 | 217 | 1.7 | 4.3 | 0.00 | 0.00 | 0.00 | 63 | 1018.7 |
| 20260505020144 | 67 | 189 | 1.7 | 4.3 | 0.00 | 0.00 | 0.00 | 62 | 1018.8 |
| 20260505015637 | 67 | 221 | 0.9 | 6.1 | 0.00 | 0.00 | 0.00 | 62 | 1018.8 |
| 20260505015138 | 67 | 210 | 1.7 | 6.1 | 0.00 | 0.00 | 0.00 | 62 | 1018.7 |
| 20260505014633 | 67 | 211 | 1.7 | 6.1 | 0.00 | 0.00 | 0.00 | 62 | 1018.7 |
| 20260505014139 | 67 | 219 | 2.6 | 7.0 | 0.00 | 0.00 | 0.00 | 62 | 1018.7 |
| 20260505013633 | 68 | 157 | 2.6 | 7.0 | 0.00 | 0.00 | 0.00 | 61 | 1018.6 |
| 20260505013140 | 68 | 209 | 2.6 | 7.0 | 0.00 | 0.00 | 0.00 | 61 | 1018.5 |
| 20260505012634 | 68 | 209 | 2.6 | 7.8 | 0.00 | 0.00 | 0.00 | 61 | 1018.4 |
| 20260505012140 | 68 | 200 | 2.6 | 7.8 | 0.00 | 0.00 | 0.00 | 61 | 1018.4 |
| 20260505011632 | 69 | 177 | 2.6 | 7.0 | 0.00 | 0.00 | 0.00 | 60 | 1018.2 |
| 20260505011356 | 69 | 199 | 1.7 | 6.1 | 0.00 | 0.00 | 0.00 | 60 | 1018.2 |
| 20260505010634 | 69 | 199 | 2.6 | 7.0 | 0.00 | 0.00 | 0.00 | 59 | 1018.0 |
| 20260505010359 | 69 | 179 | 2.6 | 7.0 | 0.00 | 0.00 | 0.00 | 59 | 1018.0 |
| 20260505005633 | 69 | 209 | 2.6 | 7.0 | 0.00 | 0.00 | 0.00 | 59 | 1017.9 |
| 20260505005342 | 70 | 214 | 2.6 | 7.0 | 0.00 | 0.00 | 0.00 | 58 | 1017.9 |
| 20260505005228 | 69 | 204 | 2.6 | 7.0 | 0.00 | 0.00 | 0.00 | 58 | 1017.9 |
| 20260505004404 | 70 | 324 | 0.9 | 5.2 | 0.00 | 0.00 | 0.00 | 57 | 1017.8 |
| 20260505003634 | 70 | 314 | 0.9 | 4.3 | 0.00 | 0.00 | 0.00 | 56 | 1017.7 |
| 20260505003139 | 71 | 199 | 1.7 | 5.2 | 0.00 | 0.00 | 0.00 | 56 | 1017.6 |
| 20260505002634 | 71 | 199 | 1.7 | 7.0 | 0.00 | 0.00 | 0.00 | 55 | 1017.5 |
| 20260505002406 | 71 | 190 | 1.7 | 7.0 | 0.00 | 0.00 | 0.00 | 54 | 1017.5 |
| 20260505001854 | 71 | 184 | 0.9 | 5.2 | 0.00 | 0.00 | 0.00 | 53 | 1017.4 |
| 20260505001137 | 72 | 215 | 0.9 | 5.2 | 0.00 | 0.00 | 0.00 | 52 | 1017.3 |
| 20260505000631 | 72 | 203 | 0.9 | 3.5 | 0.00 | 0.00 | 0.00 | 50 | 1017.3 |
| 20260505000136 | 73 | 200 | 0.0 | 2.6 | 0.00 | 0.00 | 0.00 | 51 | 1017.1 |
| 20260504235537 | 73 | 200 | 0.9 | 2.6 | 0.00 | 0.00 | 0.00 | 48 | 1017.0 |
| 20260504235038 | 74 | 199 | 0.9 | 3.5 | 0.00 | 0.00 | 0.00 | 47 | 1017.0 |
| 20260504234538 | 74 | 204 | 0.9 | 4.3 | 0.00 | 0.00 | 0.00 | 47 | 1017.0 |
| 20260504234037 | 74 | 199 | 1.7 | 4.3 | 0.00 | 0.00 | 0.00 | 46 | 1017.0 |
| 20260504233537 | 74 | 198 | 1.7 | 4.3 | 0.00 | 0.00 | 0.00 | 47 | 1017.0 |
| 20260504233037 | 74 | 178 | 1.7 | 4.3 | 0.00 | 0.00 | 0.00 | 46 | 1017.0 |
| 20260504232538 | 75 | 182 | 0.9 | 6.1 | 0.00 | 0.00 | 0.00 | 46 | 1017.0 |
| 20260504232031 | 75 | 192 | 1.7 | 6.1 | 0.00 | 0.00 | 0.00 | 45 | 1016.9 |
| 20260504231532 | 75 | 176 | 0.9 | 5.2 | 0.00 | 0.00 | 0.00 | 45 | 1017.0 |
| 20260504231035 | 75 | 148 | 1.7 | 5.2 | 0.00 | 0.00 | 0.00 | 44 | 1017.0 |
| 20260504230530 | 76 | 215 | 2.6 | 9.6 | 0.00 | 0.00 | 0.00 | 44 | 1016.9 |
| 20260504230033 | 76 | 221 | 2.6 | 9.6 | 0.00 | 0.00 | 0.00 | 43 | 1016.8 |
| 20260504225532 | 76 | 214 | 1.7 | 6.1 | 0.00 | 0.00 | 0.00 | 43 | 1016.8 |
| 20260504225030 | 77 | 213 | 2.6 | 6.1 | 0.00 | 0.00 | 0.00 | 42 | 1016.9 |
| 20260504224532 | 77 | 192 | 1.7 | 6.1 | 0.00 | 0.00 | 0.00 | 41 | 1016.9 |
| 20260504224508 | 77 | 166 | 2.6 | 6.1 | 0.00 | 0.00 | 0.00 | 41 | 1016.8 |
| 20260504223530 | 77 | 267 | 2.6 | 6.1 | 0.00 | 0.00 | 0.00 | 41 | 1017.0 |
| 20260504223032 | 77 | 203 | 2.6 | 7.0 | 0.00 | 0.00 | 0.00 | 40 | 1016.9 |
| 20260504222528 | 77 | 281 | 1.7 | 7.8 | 0.00 | 0.00 | 0.00 | 39 | 1016.9 |
| 20260504222028 | 78 | 200 | 1.7 | 7.8 | 0.00 | 0.00 | 0.00 | 39 | 1016.9 |
| 20260504221528 | 78 | 198 | 1.7 | 7.0 | 0.00 | 0.00 | 0.00 | 39 | 1016.7 |
| 20260504221035 | 78 | 236 | 2.6 | 10.4 | 0.00 | 0.00 | 0.00 | 38 | 1016.8 |
| 20260504220529 | 78 | 205 | 2.6 | 10.4 | 0.00 | 0.00 | 0.00 | 39 | 1016.8 |
| 20260504220036 | 78 | 154 | 2.6 | 8.7 | 0.00 | 0.00 | 0.00 | 39 | 1016.7 |
| 20260504215517 | 78 | 193 | 2.6 | 8.7 | 0.00 | 0.00 | 0.00 | 39 | 1016.8 |
| 20260504215011 | 78 | 222 | 2.6 | 8.7 | 0.00 | 0.00 | 0.00 | 40 | 1016.7 |
| 20260504214505 | 78 | 208 | 3.5 | 9.6 | 0.00 | 0.00 | 0.00 | 40 | 1016.6 |
| 20260504214000 | 78 | 219 | 3.5 | 9.6 | 0.00 | 0.00 | 0.00 | 39 | 1016.7 |
| 20260504213713 | 78 | 217 | 3.5 | 12.2 | 0.00 | 0.00 | 0.00 | 40 | 1016.7 |
| 20260504212947 | 78 | 189 | 3.5 | 12.2 | 0.00 | 0.00 | 0.00 | 40 | 1016.7 |
| 20260504212441 | 79 | 212 | 3.5 | 10.4 | 0.00 | 0.00 | 0.00 | 39 | 1016.7 |
| 20260504211936 | 79 | 190 | 2.6 | 10.4 | 0.00 | 0.00 | 0.00 | 39 | 1016.7 |
| 20260504211429 | 79 | 173 | 1.7 | 7.8 | 0.00 | 0.00 | 0.00 | 40 | 1016.7 |
| 20260504210923 | 79 | 205 | 1.7 | 6.1 | 0.00 | 0.00 | 0.00 | 39 | 1016.6 |
| 20260504210647 | 79 | 328 | 2.6 | 7.8 | 0.00 | 0.00 | 0.00 | 37 | 1016.6 |
| 20260504205912 | 79 | 232 | 2.6 | 7.8 | 0.00 | 0.00 | 0.00 | 37 | 1016.7 |
| 20260504205405 | 79 | 184 | 2.6 | 7.0 | 0.00 | 0.00 | 0.00 | 38 | 1016.7 |
| 20260504204859 | 79 | 158 | 2.6 | 7.0 | 0.00 | 0.00 | 0.00 | 37 | 1016.8 |
| 20260504204354 | 79 | 210 | 2.6 | 6.1 | 0.00 | 0.00 | 0.00 | 38 | 1016.9 |
| 20260504203848 | 79 | 199 | 2.6 | 7.8 | 0.00 | 0.00 | 0.00 | 38 | 1017.0 |
| 20260504203341 | 79 | 191 | 2.6 | 7.8 | 0.00 | 0.00 | 0.00 | 36 | 1017.1 |
| 20260504202835 | 80 | 243 | 2.6 | 11.3 | 0.00 | 0.00 | 0.00 | 37 | 1017.2 |
| 20260504202329 | 80 | 211 | 2.6 | 11.3 | 0.00 | 0.00 | 0.00 | 37 | 1017.2 |
| 20260504201823 | 80 | 159 | 2.6 | 7.0 | 0.00 | 0.00 | 0.00 | 37 | 1017.3 |